sensor_id;sensor_type;location;lat;lon;timestamp;pressure;altitude;pressure_sealevel;temperature;humidity
40117;BME280;25829;50.228;18.936;2023-03-03T00:03:49;98823.25;;;-1.88;66.45
40117;BME280;25829;50.228;18.936;2023-03-03T00:07:28;98817.97;;;-1.86;66.42
40117;BME280;25829;50.228;18.936;2023-03-03T00:11:02;98820.56;;;-1.86;66.37
40117;BME280;25829;50.228;18.936;2023-03-03T00:18:48;98824.34;;;-1.90;66.45
40117;BME280;25829;50.228;18.936;2023-03-03T00:25:58;98815.84;;;-1.92;66.13
40117;BME280;25829;50.228;18.936;2023-03-03T00:29:43;98821.97;;;-1.93;66.07
40117;BME280;25829;50.228;18.936;2023-03-03T00:32:58;98818.81;;;-1.97;66.37
40117;BME280;25829;50.228;18.936;2023-03-03T00:36:43;98810.47;;;-2.00;66.29
40117;BME280;25829;50.228;18.936;2023-03-03T00:40:24;98809.16;;;-2.06;66.39
40117;BME280;25829;50.228;18.936;2023-03-03T00:44:18;98816.00;;;-2.16;66.40
40117;BME280;25829;50.228;18.936;2023-03-03T00:48:52;98808.38;;;-2.18;66.77
40117;BME280;25829;50.228;18.936;2023-03-03T00:53:10;98816.94;;;-2.17;66.47
40117;BME280;25829;50.228;18.936;2023-03-03T00:57:06;98814.59;;;-2.20;66.75
40117;BME280;25829;50.228;18.936;2023-03-03T01:01:04;98813.88;;;-2.22;66.99
40117;BME280;25829;50.228;18.936;2023-03-03T01:05:03;98818.34;;;-2.24;66.67
40117;BME280;25829;50.228;18.936;2023-03-03T01:08:44;98816.81;;;-2.27;66.43
40117;BME280;25829;50.228;18.936;2023-03-03T01:11:44;98816.81;;;-2.27;66.67
40117;BME280;25829;50.228;18.936;2023-03-03T01:14:46;98808.47;;;-2.31;66.64
40117;BME280;25829;50.228;18.936;2023-03-03T01:17:49;98809.28;;;-2.30;66.75
40117;BME280;25829;50.228;18.936;2023-03-03T01:20:50;98806.03;;;-2.32;66.81
40117;BME280;25829;50.228;18.936;2023-03-03T01:23:51;98791.19;;;-2.30;66.66
40117;BME280;25829;50.228;18.936;2023-03-03T01:26:52;98788.03;;;-2.34;66.55
40117;BME280;25829;50.228;18.936;2023-03-03T01:29:53;98786.25;;;-2.33;66.73
40117;BME280;25829;50.228;18.936;2023-03-03T01:32:54;98777.81;;;-2.35;66.47
40117;BME280;25829;50.228;18.936;2023-03-03T01:35:55;98778.53;;;-2.44;66.24
40117;BME280;25829;50.228;18.936;2023-03-03T01:38:56;98775.13;;;-2.56;66.43
40117;BME280;25829;50.228;18.936;2023-03-03T01:41:57;98776.97;;;-2.69;66.83
40117;BME280;25829;50.228;18.936;2023-03-03T01:48:31;98774.03;;;-2.65;67.26
40117;BME280;25829;50.228;18.936;2023-03-03T01:52:00;98763.84;;;-2.66;67.20
40117;BME280;25829;50.228;18.936;2023-03-03T01:55:11;98767.34;;;-2.67;67.33
40117;BME280;25829;50.228;18.936;2023-03-03T02:01:19;98769.59;;;-2.74;67.48
40117;BME280;25829;50.228;18.936;2023-03-03T02:04:21;98762.88;;;-2.77;67.18
40117;BME280;25829;50.228;18.936;2023-03-03T02:07:24;98768.16;;;-2.78;67.10
40117;BME280;25829;50.228;18.936;2023-03-03T02:10:28;98770.88;;;-2.80;67.23
40117;BME280;25829;50.228;18.936;2023-03-03T02:13:29;98768.72;;;-2.86;67.03
40117;BME280;25829;50.228;18.936;2023-03-03T02:16:39;98771.22;;;-2.84;67.39
40117;BME280;25829;50.228;18.936;2023-03-03T02:26:29;98778.38;;;-2.88;67.21
40117;BME280;25829;50.228;18.936;2023-03-03T02:29:36;98786.22;;;-2.89;67.11
40117;BME280;25829;50.228;18.936;2023-03-03T02:32:38;98780.09;;;-2.88;67.37
40117;BME280;25829;50.228;18.936;2023-03-03T02:35:41;98787.03;;;-2.89;66.97
40117;BME280;25829;50.228;18.936;2023-03-03T02:38:48;98781.06;;;-2.89;67.10
40117;BME280;25829;50.228;18.936;2023-03-03T02:42:37;98787.97;;;-2.90;66.91
40117;BME280;25829;50.228;18.936;2023-03-03T02:45:53;98792.41;;;-2.92;67.03
40117;BME280;25829;50.228;18.936;2023-03-03T02:48:54;98793.81;;;-2.99;67.04
40117;BME280;25829;50.228;18.936;2023-03-03T02:51:55;98803.31;;;-3.00;66.90
40117;BME280;25829;50.228;18.936;2023-03-03T02:54:58;98797.56;;;-3.03;66.98
40117;BME280;25829;50.228;18.936;2023-03-03T02:57:59;98789.22;;;-3.07;67.07
40117;BME280;25829;50.228;18.936;2023-03-03T03:01:00;98793.44;;;-3.06;67.00
40117;BME280;25829;50.228;18.936;2023-03-03T03:04:14;98784.06;;;-3.07;66.67
40117;BME280;25829;50.228;18.936;2023-03-03T03:07:18;98786.63;;;-3.07;66.63
40117;BME280;25829;50.228;18.936;2023-03-03T03:10:19;98786.16;;;-3.12;66.33
40117;BME280;25829;50.228;18.936;2023-03-03T03:13:22;98779.56;;;-3.16;67.08
40117;BME280;25829;50.228;18.936;2023-03-03T03:16:26;98783.91;;;-3.16;66.95
40117;BME280;25829;50.228;18.936;2023-03-03T03:20:11;98775.47;;;-3.18;67.03
40117;BME280;25829;50.228;18.936;2023-03-03T03:23:13;98778.16;;;-3.20;66.85
40117;BME280;25829;50.228;18.936;2023-03-03T03:26:14;98773.09;;;-3.22;66.78
40117;BME280;25829;50.228;18.936;2023-03-03T03:29:15;98774.28;;;-3.26;66.80
40117;BME280;25829;50.228;18.936;2023-03-03T03:32:16;98779.53;;;-3.27;66.42
40117;BME280;25829;50.228;18.936;2023-03-03T03:35:17;98774.59;;;-3.30;66.79
40117;BME280;25829;50.228;18.936;2023-03-03T03:38:18;98774.94;;;-3.35;66.80
40117;BME280;25829;50.228;18.936;2023-03-03T03:41:21;98764.84;;;-3.38;66.76
40117;BME280;25829;50.228;18.936;2023-03-03T03:44:23;98763.19;;;-3.39;67.26
40117;BME280;25829;50.228;18.936;2023-03-03T03:47:25;98759.69;;;-3.38;66.65
40117;BME280;25829;50.228;18.936;2023-03-03T03:50:26;98755.47;;;-3.39;67.06
40117;BME280;25829;50.228;18.936;2023-03-03T03:53:27;98755.47;;;-3.39;66.93
40117;BME280;25829;50.228;18.936;2023-03-03T03:56:29;98755.56;;;-3.40;66.61
40117;BME280;25829;50.228;18.936;2023-03-03T03:59:48;98766.81;;;-3.41;66.72
40117;BME280;25829;50.228;18.936;2023-03-03T04:03:24;98773.69;;;-3.53;66.45
40117;BME280;25829;50.228;18.936;2023-03-03T04:06:26;98773.00;;;-3.68;66.48
40117;BME280;25829;50.228;18.936;2023-03-03T04:09:30;98781.69;;;-3.69;67.32
40117;BME280;25829;50.228;18.936;2023-03-03T04:12:31;98781.59;;;-3.67;67.45
40117;BME280;25829;50.228;18.936;2023-03-03T04:15:39;98780.66;;;-3.66;67.20
40117;BME280;25829;50.228;18.936;2023-03-03T04:18:41;98784.88;;;-3.65;67.15
40117;BME280;25829;50.228;18.936;2023-03-03T04:21:42;98779.72;;;-3.65;66.89
40117;BME280;25829;50.228;18.936;2023-03-03T04:24:43;98783.94;;;-3.64;66.96
40117;BME280;25829;50.228;18.936;2023-03-03T04:27:44;98777.13;;;-3.65;67.18
40117;BME280;25829;50.228;18.936;2023-03-03T04:30:46;98781.47;;;-3.66;67.11
40117;BME280;25829;50.228;18.936;2023-03-03T04:33:51;98779.84;;;-3.67;66.86
40117;BME280;25829;50.228;18.936;2023-03-03T04:36:53;98772.94;;;-3.66;66.77
40117;BME280;25829;50.228;18.936;2023-03-03T04:39:55;98773.88;;;-3.67;67.08
40117;BME280;25829;50.228;18.936;2023-03-03T04:42:56;98772.19;;;-3.68;66.70
40117;BME280;25829;50.228;18.936;2023-03-03T04:45:58;98777.47;;;-3.70;66.82
40117;BME280;25829;50.228;18.936;2023-03-03T04:48:59;98787.28;;;-3.75;66.75
40117;BME280;25829;50.228;18.936;2023-03-03T04:52:01;98778.72;;;-3.76;67.27
40117;BME280;25829;50.228;18.936;2023-03-03T04:55:02;98789.03;;;-3.76;67.09
40117;BME280;25829;50.228;18.936;2023-03-03T04:58:04;98776.97;;;-3.75;67.15
40117;BME280;25829;50.228;18.936;2023-03-03T05:01:05;98768.94;;;-3.71;67.38
40117;BME280;25829;50.228;18.936;2023-03-03T05:04:08;98765.28;;;-3.68;67.85
40117;BME280;25829;50.228;18.936;2023-03-03T05:07:09;98768.81;;;-3.69;68.17
40117;BME280;25829;50.228;18.936;2023-03-03T05:10:10;98774.91;;;-3.70;68.56
40117;BME280;25829;50.228;18.936;2023-03-03T05:13:11;98774.91;;;-3.70;68.85
40117;BME280;25829;50.228;18.936;2023-03-03T05:16:14;98774.78;;;-3.68;69.11
40117;BME280;25829;50.228;18.936;2023-03-03T05:19:15;98790.25;;;-3.68;68.97
40117;BME280;25829;50.228;18.936;2023-03-03T05:22:16;98796.16;;;-3.79;69.41
40117;BME280;25829;50.228;18.936;2023-03-03T05:25:18;98799.16;;;-3.85;70.00
40117;BME280;25829;50.228;18.936;2023-03-03T05:28:19;98803.09;;;-3.80;69.98
40117;BME280;25829;50.228;18.936;2023-03-03T05:31:20;98800.00;;;-3.85;70.18
40117;BME280;25829;50.228;18.936;2023-03-03T05:34:21;98808.97;;;-3.78;70.39
40117;BME280;25829;50.228;18.936;2023-03-03T05:37:21;98809.44;;;-3.73;70.45
40117;BME280;25829;50.228;18.936;2023-03-03T05:40:25;98815.72;;;-3.64;70.46
40117;BME280;25829;50.228;18.936;2023-03-03T05:43:26;98814.56;;;-3.60;70.43
40117;BME280;25829;50.228;18.936;2023-03-03T05:46:27;98816.13;;;-3.57;70.66
40117;BME280;25829;50.228;18.936;2023-03-03T05:49:28;98818.69;;;-3.57;70.32
40117;BME280;25829;50.228;18.936;2023-03-03T05:52:29;98821.88;;;-3.54;70.47
40117;BME280;25829;50.228;18.936;2023-03-03T05:55:30;98830.91;;;-3.48;69.98
40117;BME280;25829;50.228;18.936;2023-03-03T05:58:31;98837.63;;;-3.46;70.04
40117;BME280;25829;50.228;18.936;2023-03-03T06:01:32;98843.38;;;-3.42;69.66
40117;BME280;25829;50.228;18.936;2023-03-03T06:04:33;98841.41;;;-3.38;69.56
40117;BME280;25829;50.228;18.936;2023-03-03T06:07:34;98848.81;;;-3.34;69.56
40117;BME280;25829;50.228;18.936;2023-03-03T06:10:38;98851.91;;;-3.29;69.64
40117;BME280;25829;50.228;18.936;2023-03-03T06:13:45;98851.13;;;-3.18;69.45
40117;BME280;25829;50.228;18.936;2023-03-03T06:16:47;98851.38;;;-3.10;69.36
40117;BME280;25829;50.228;18.936;2023-03-03T06:19:48;98860.22;;;-3.01;69.39
40117;BME280;25829;50.228;18.936;2023-03-03T06:22:52;98863.88;;;-2.92;69.25
40117;BME280;25829;50.228;18.936;2023-03-03T06:25:53;98868.47;;;-2.85;69.21
40117;BME280;25829;50.228;18.936;2023-03-03T06:28:54;98856.88;;;-2.79;69.25
40117;BME280;25829;50.228;18.936;2023-03-03T06:31:54;98877.53;;;-2.79;68.91
40117;BME280;25829;50.228;18.936;2023-03-03T06:34:55;98851.03;;;-2.81;69.50
40117;BME280;25829;50.228;18.936;2023-03-03T06:38:02;98855.94;;;-2.78;69.33
40117;BME280;25829;50.228;18.936;2023-03-03T06:41:04;98862.31;;;-2.71;69.54
40117;BME280;25829;50.228;18.936;2023-03-03T06:44:10;98846.84;;;-2.60;69.36
40117;BME280;25829;50.228;18.936;2023-03-03T06:47:11;98869.31;;;-2.49;69.13
40117;BME280;25829;50.228;18.936;2023-03-03T06:50:19;98876.59;;;-2.43;68.90
40117;BME280;25829;50.228;18.936;2023-03-03T06:55:01;98889.38;;;-2.41;69.17
40117;BME280;25829;50.228;18.936;2023-03-03T06:59:20;98888.34;;;-2.39;68.96
40117;BME280;25829;50.228;18.936;2023-03-03T07:02:21;98875.06;;;-2.34;69.12
40117;BME280;25829;50.228;18.936;2023-03-03T07:05:23;98871.31;;;-2.30;69.26
40117;BME280;25829;50.228;18.936;2023-03-03T07:08:25;98870.72;;;-2.34;69.24
40117;BME280;25829;50.228;18.936;2023-03-03T07:11:32;98879.88;;;-2.30;69.45
40117;BME280;25829;50.228;18.936;2023-03-03T07:18:01;98872.16;;;-2.18;69.44
40117;BME280;25829;50.228;18.936;2023-03-03T07:21:35;98861.94;;;-2.09;69.58
40117;BME280;25829;50.228;18.936;2023-03-03T07:24:36;98876.75;;;-2.11;69.10
40117;BME280;25829;50.228;18.936;2023-03-03T07:27:37;98868.19;;;-2.11;69.38
40117;BME280;25829;50.228;18.936;2023-03-03T07:30:38;98882.28;;;-2.04;69.32
40117;BME280;25829;50.228;18.936;2023-03-03T07:33:43;98888.97;;;-2.01;68.80
40117;BME280;25829;50.228;18.936;2023-03-03T07:37:21;98898.03;;;-1.96;69.26
40117;BME280;25829;50.228;18.936;2023-03-03T07:44:20;98893.91;;;-1.76;69.17
40117;BME280;25829;50.228;18.936;2023-03-03T07:47:27;98884.00;;;-1.71;68.91
40117;BME280;25829;50.228;18.936;2023-03-03T07:50:29;98876.84;;;-1.67;68.79
40117;BME280;25829;50.228;18.936;2023-03-03T07:53:33;98893.22;;;-1.67;68.29
40117;BME280;25829;50.228;18.936;2023-03-03T07:56:35;98898.72;;;-1.71;68.58
40117;BME280;25829;50.228;18.936;2023-03-03T07:59:46;98914.84;;;-1.79;68.73
40117;BME280;25829;50.228;18.936;2023-03-03T08:02:57;98921.66;;;-1.78;69.36
40117;BME280;25829;50.228;18.936;2023-03-03T08:12:47;98899.06;;;-1.65;69.43
40117;BME280;25829;50.228;18.936;2023-03-03T08:15:58;98900.84;;;-1.65;69.21
40117;BME280;25829;50.228;18.936;2023-03-03T08:19:02;98898.47;;;-1.68;69.49
40117;BME280;25829;50.228;18.936;2023-03-03T08:22:38;98895.19;;;-1.59;69.55
40117;BME280;25829;50.228;18.936;2023-03-03T08:25:39;98903.41;;;-1.54;69.51
40117;BME280;25829;50.228;18.936;2023-03-03T08:28:41;98891.75;;;-1.48;69.76
40117;BME280;25829;50.228;18.936;2023-03-03T08:31:42;98895.63;;;-1.43;69.59
40117;BME280;25829;50.228;18.936;2023-03-03T08:34:43;98897.38;;;-1.43;69.14
40117;BME280;25829;50.228;18.936;2023-03-03T08:37:44;98912.09;;;-1.44;69.47
40117;BME280;25829;50.228;18.936;2023-03-03T08:40:46;98916.91;;;-1.39;69.64
40117;BME280;25829;50.228;18.936;2023-03-03T08:43:47;98914.78;;;-1.34;69.51
40117;BME280;25829;50.228;18.936;2023-03-03T08:46:51;98934.22;;;-1.28;69.69
40117;BME280;25829;50.228;18.936;2023-03-03T08:49:58;98932.88;;;-1.23;69.46
40117;BME280;25829;50.228;18.936;2023-03-03T08:52:59;98927.59;;;-1.21;69.40
40117;BME280;25829;50.228;18.936;2023-03-03T08:55:59;98919.03;;;-1.22;69.65
40117;BME280;25829;50.228;18.936;2023-03-03T08:59:00;98907.22;;;-1.15;69.87
40117;BME280;25829;50.228;18.936;2023-03-03T09:02:02;98920.47;;;-1.08;69.91
40117;BME280;25829;50.228;18.936;2023-03-03T09:05:03;98904.47;;;-1.02;69.84
40117;BME280;25829;50.228;18.936;2023-03-03T09:08:07;98895.25;;;-0.95;69.66
40117;BME280;25829;50.228;18.936;2023-03-03T09:11:13;98902.44;;;-0.87;70.00
40117;BME280;25829;50.228;18.936;2023-03-03T09:14:16;98899.56;;;-0.84;69.95
40117;BME280;25829;50.228;18.936;2023-03-03T09:17:29;98893.22;;;-0.80;70.11
40117;BME280;25829;50.228;18.936;2023-03-03T09:23:39;98906.59;;;-0.75;70.10
40117;BME280;25829;50.228;18.936;2023-03-03T09:26:45;98900.13;;;-0.69;70.31
40117;BME280;25829;50.228;18.936;2023-03-03T09:29:46;98893.03;;;-0.67;69.80
40117;BME280;25829;50.228;18.936;2023-03-03T09:32:47;98897.94;;;-0.64;70.19
40117;BME280;25829;50.228;18.936;2023-03-03T09:35:54;98885.56;;;-0.61;69.88
40117;BME280;25829;50.228;18.936;2023-03-03T09:39:20;98886.84;;;-0.55;70.15
40117;BME280;25829;50.228;18.936;2023-03-03T09:42:54;98888.78;;;-0.47;70.01
40117;BME280;25829;50.228;18.936;2023-03-03T09:49:30;98892.03;;;-0.34;70.27
40117;BME280;25829;50.228;18.936;2023-03-03T09:56:31;98919.34;;;-0.30;69.72
40117;BME280;25829;50.228;18.936;2023-03-03T10:00:21;98914.53;;;-0.34;70.25
40117;BME280;25829;50.228;18.936;2023-03-03T10:03:25;98917.50;;;-0.39;70.26
40117;BME280;25829;50.228;18.936;2023-03-03T10:13:30;98898.75;;;-0.31;70.16
40117;BME280;25829;50.228;18.936;2023-03-03T10:17:05;98918.03;;;-0.24;70.65
40117;BME280;25829;50.228;18.936;2023-03-03T10:20:29;98913.41;;;-0.21;70.38
40117;BME280;25829;50.228;18.936;2023-03-03T10:24:02;98919.78;;;-0.25;70.26
40117;BME280;25829;50.228;18.936;2023-03-03T10:31:01;98933.81;;;-0.27;70.08
40117;BME280;25829;50.228;18.936;2023-03-03T10:36:15;98928.75;;;-0.29;70.66
40117;BME280;25829;50.228;18.936;2023-03-03T10:47:47;98923.53;;;-0.39;70.89
40117;BME280;25829;50.228;18.936;2023-03-03T10:51:01;98929.28;;;-0.35;70.88
40117;BME280;25829;50.228;18.936;2023-03-03T10:54:34;98931.34;;;-0.29;70.66
40117;BME280;25829;50.228;18.936;2023-03-03T10:57:51;98924.69;;;-0.22;70.20
40117;BME280;25829;50.228;18.936;2023-03-03T11:07:43;98923.69;;;-0.09;70.47
40117;BME280;25829;50.228;18.936;2023-03-03T11:11:06;98920.84;;;-0.06;70.36
40117;BME280;25829;50.228;18.936;2023-03-03T11:14:28;98917.03;;;-0.02;69.95
40117;BME280;25829;50.228;18.936;2023-03-03T11:21:22;98915.56;;;0.05;70.20
40117;BME280;25829;50.228;18.936;2023-03-03T11:28:11;98909.97;;;0.09;69.69
40117;BME280;25829;50.228;18.936;2023-03-03T11:47:48;98902.25;;;0.19;69.53
40117;BME280;25829;50.228;18.936;2023-03-03T11:51:03;98900.91;;;0.25;69.38
40117;BME280;25829;50.228;18.936;2023-03-03T11:54:21;98905.69;;;0.29;68.86
40117;BME280;25829;50.228;18.936;2023-03-03T12:19:34;98905.06;;;0.47;67.71
40117;BME280;25829;50.228;18.936;2023-03-03T12:36:24;98896.63;;;0.54;67.29
40117;BME280;25829;50.228;18.936;2023-03-03T12:39:43;98881.59;;;0.58;67.32
40117;BME280;25829;50.228;18.936;2023-03-03T12:49:06;98882.84;;;0.64;67.25
40117;BME280;25829;50.228;18.936;2023-03-03T12:52:26;98876.84;;;0.63;66.82
40117;BME280;25829;50.228;18.936;2023-03-03T13:05:29;98873.16;;;0.75;66.46
40117;BME280;25829;50.228;18.936;2023-03-03T13:12:29;98866.06;;;0.77;66.36
40117;BME280;25829;50.228;18.936;2023-03-03T13:22:43;98861.28;;;0.82;66.44
40117;BME280;25829;50.228;18.936;2023-03-03T13:25:59;98870.84;;;0.82;65.86
40117;BME280;25829;50.228;18.936;2023-03-03T13:29:12;98872.63;;;0.81;66.01
40117;BME280;25829;50.228;18.936;2023-03-03T13:32:48;98867.31;;;0.83;66.21
40117;BME280;25829;50.228;18.936;2023-03-03T13:39:29;98861.97;;;0.94;65.71
40117;BME280;25829;50.228;18.936;2023-03-03T13:42:52;98864.16;;;0.89;65.93
40117;BME280;25829;50.228;18.936;2023-03-03T14:00:25;98856.25;;;0.91;65.59
40117;BME280;25829;50.228;18.936;2023-03-03T14:03:59;98866.22;;;0.95;64.77
40117;BME280;25829;50.228;18.936;2023-03-03T14:07:32;98873.03;;;0.96;64.64
40117;BME280;25829;50.228;18.936;2023-03-03T14:11:08;98868.97;;;0.94;65.12
40117;BME280;25829;50.228;18.936;2023-03-03T14:18:02;98861.69;;;0.88;64.68
40117;BME280;25829;50.228;18.936;2023-03-03T14:21:34;98855.41;;;0.90;64.36
40117;BME280;25829;50.228;18.936;2023-03-03T14:25:06;98854.03;;;0.96;64.92
40117;BME280;25829;50.228;18.936;2023-03-03T14:28:11;98849.28;;;1.01;64.64
40117;BME280;25829;50.228;18.936;2023-03-03T14:31:17;98857.88;;;1.01;64.87
40117;BME280;25829;50.228;18.936;2023-03-03T14:34:38;98847.88;;;1.06;64.63
40117;BME280;25829;50.228;18.936;2023-03-03T14:37:49;98851.31;;;1.07;64.00
40117;BME280;25829;50.228;18.936;2023-03-03T14:41:48;98856.22;;;1.10;63.94
40117;BME280;25829;50.228;18.936;2023-03-03T14:44:55;98857.47;;;1.06;63.34
40117;BME280;25829;50.228;18.936;2023-03-03T14:47:59;98849.38;;;0.99;64.03
40117;BME280;25829;50.228;18.936;2023-03-03T14:54:59;98850.78;;;0.94;63.61
40117;BME280;25829;50.228;18.936;2023-03-03T14:58:21;98848.28;;;0.92;63.80
40117;BME280;25829;50.228;18.936;2023-03-03T15:01:36;98852.00;;;0.80;64.05
40117;BME280;25829;50.228;18.936;2023-03-03T15:04:40;98856.66;;;0.76;63.74
40117;BME280;25829;50.228;18.936;2023-03-03T15:07:41;98854.88;;;0.77;64.17
40117;BME280;25829;50.228;18.936;2023-03-03T15:10:44;98856.66;;;0.76;64.14
40117;BME280;25829;50.228;18.936;2023-03-03T15:13:45;98846.25;;;0.76;64.08
40117;BME280;25829;50.228;18.936;2023-03-03T15:16:46;98843.94;;;0.83;64.16
40117;BME280;25829;50.228;18.936;2023-03-03T15:19:49;98834.63;;;0.80;63.78
40117;BME280;25829;50.228;18.936;2023-03-03T15:29:36;98835.97;;;0.65;64.71
40117;BME280;25829;50.228;18.936;2023-03-03T15:32:52;98834.50;;;0.63;64.81
40117;BME280;25829;50.228;18.936;2023-03-03T15:36:12;98837.47;;;0.58;64.73
40117;BME280;25829;50.228;18.936;2023-03-03T15:59:59;98838.13;;;0.41;64.98
40117;BME280;25829;50.228;18.936;2023-03-03T16:04:27;98838.66;;;0.34;65.68
40117;BME280;25829;50.228;18.936;2023-03-03T16:10:49;98848.50;;;0.31;65.35
40117;BME280;25829;50.228;18.936;2023-03-03T16:17:20;98839.19;;;0.28;65.80
40117;BME280;25829;50.228;18.936;2023-03-03T16:31:24;98846.97;;;0.28;65.96
40117;BME280;25829;50.228;18.936;2023-03-03T16:40:59;98851.25;;;0.39;65.99
40117;BME280;25829;50.228;18.936;2023-03-03T16:44:45;98844.16;;;0.41;65.98
40117;BME280;25829;50.228;18.936;2023-03-03T16:54:34;98848.78;;;0.38;66.00
40117;BME280;25829;50.228;18.936;2023-03-03T16:57:47;98853.41;;;0.34;66.25
40117;BME280;25829;50.228;18.936;2023-03-03T17:01:07;98855.72;;;0.37;66.61
40117;BME280;25829;50.228;18.936;2023-03-03T17:04:19;98853.69;;;0.41;66.07
40117;BME280;25829;50.228;18.936;2023-03-03T17:07:54;98850.84;;;0.44;66.20
40117;BME280;25829;50.228;18.936;2023-03-03T17:11:21;98849.06;;;0.44;66.25
40117;BME280;25829;50.228;18.936;2023-03-03T17:25:03;98874.59;;;0.39;66.71
40117;BME280;25829;50.228;18.936;2023-03-03T17:31:35;98873.06;;;0.36;67.00
40117;BME280;25829;50.228;18.936;2023-03-03T17:44:48;98867.34;;;0.33;67.11
40117;BME280;25829;50.228;18.936;2023-03-03T17:55:29;98873.88;;;0.27;67.54
40117;BME280;25829;50.228;18.936;2023-03-03T18:02:07;98870.75;;;0.24;67.52
40117;BME280;25829;50.228;18.936;2023-03-03T18:05:41;98872.50;;;0.23;67.64
40117;BME280;25829;50.228;18.936;2023-03-03T18:22:01;98864.41;;;0.17;67.92
40117;BME280;25829;50.228;18.936;2023-03-03T18:25:16;98873.84;;;0.18;68.25
40117;BME280;25829;50.228;18.936;2023-03-03T18:28:45;98870.84;;;0.22;67.86
40117;BME280;25829;50.228;18.936;2023-03-03T18:35:23;98875.09;;;0.23;67.75
40117;BME280;25829;50.228;18.936;2023-03-03T18:38:27;98879.84;;;0.18;68.05
40117;BME280;25829;50.228;18.936;2023-03-03T18:42:11;98874.09;;;0.15;68.45
40117;BME280;25829;50.228;18.936;2023-03-03T18:48:56;98864.75;;;0.02;68.61
40117;BME280;25829;50.228;18.936;2023-03-03T18:52:19;98862.97;;;0.03;68.90
40117;BME280;25829;50.228;18.936;2023-03-03T18:55:27;98868.16;;;0.03;68.75
40117;BME280;25829;50.228;18.936;2023-03-03T18:58:32;98864.09;;;0.00;68.85
40117;BME280;25829;50.228;18.936;2023-03-03T19:01:42;98857.38;;;-0.02;68.74
40117;BME280;25829;50.228;18.936;2023-03-03T19:15:00;98855.50;;;-0.00;68.69
40117;BME280;25829;50.228;18.936;2023-03-03T19:18:20;98847.72;;;-0.00;69.14
40117;BME280;25829;50.228;18.936;2023-03-03T19:21:24;98853.97;;;-0.03;69.14
40117;BME280;25829;50.228;18.936;2023-03-03T19:24:29;98855.59;;;-0.02;69.13
40117;BME280;25829;50.228;18.936;2023-03-03T19:34:10;98855.19;;;0.03;68.78
40117;BME280;25829;50.228;18.936;2023-03-03T19:51:28;98858.66;;;0.13;69.04
40117;BME280;25829;50.228;18.936;2023-03-03T20:08:33;98849.94;;;0.14;68.90
40117;BME280;25829;50.228;18.936;2023-03-03T20:15:15;98847.59;;;0.11;68.74
40117;BME280;25829;50.228;18.936;2023-03-03T20:19:01;98841.84;;;0.07;69.24
40117;BME280;25829;50.228;18.936;2023-03-03T20:25:24;98845.84;;;0.11;69.08
40117;BME280;25829;50.228;18.936;2023-03-03T20:35:22;98848.81;;;0.07;69.08
40117;BME280;25829;50.228;18.936;2023-03-03T20:52:51;98845.38;;;-0.03;69.41
40117;BME280;25829;50.228;18.936;2023-03-03T20:56:04;98847.25;;;-0.05;69.88
40117;BME280;25829;50.228;18.936;2023-03-03T20:59:23;98834.69;;;-0.10;69.96
40117;BME280;25829;50.228;18.936;2023-03-03T21:02:48;98828.69;;;-0.10;69.64
40117;BME280;25829;50.228;18.936;2023-03-03T21:06:06;98824.59;;;-0.13;70.01
40117;BME280;25829;50.228;18.936;2023-03-03T21:09:21;98822.94;;;-0.14;69.91
40117;BME280;25829;50.228;18.936;2023-03-03T21:12:28;98821.53;;;-0.18;69.98
40117;BME280;25829;50.228;18.936;2023-03-03T21:15:33;98812.84;;;-0.17;69.96
40117;BME280;25829;50.228;18.936;2023-03-03T21:18:35;98814.06;;;-0.12;69.70
40117;BME280;25829;50.228;18.936;2023-03-03T21:21:41;98813.94;;;-0.10;69.63
40117;BME280;25829;50.228;18.936;2023-03-03T21:28:32;98818.72;;;-0.05;69.73
40117;BME280;25829;50.228;18.936;2023-03-03T21:31:55;98809.31;;;-0.06;69.95
40117;BME280;25829;50.228;18.936;2023-03-03T21:35:09;98807.81;;;-0.09;69.78
40117;BME280;25829;50.228;18.936;2023-03-03T21:38:30;98805.75;;;-0.05;69.88
40117;BME280;25829;50.228;18.936;2023-03-03T21:41:56;98798.13;;;-0.07;69.94
40117;BME280;25829;50.228;18.936;2023-03-03T21:45:08;98801.53;;;-0.06;69.79
40117;BME280;25829;50.228;18.936;2023-03-03T21:48:09;98800.97;;;-0.10;69.83
40117;BME280;25829;50.228;18.936;2023-03-03T21:51:10;98792.25;;;-0.09;69.80
40117;BME280;25829;50.228;18.936;2023-03-03T21:54:14;98792.50;;;-0.12;69.71
40117;BME280;25829;50.228;18.936;2023-03-03T21:57:15;98787.72;;;-0.17;69.93
40117;BME280;25829;50.228;18.936;2023-03-03T22:00:19;98780.19;;;-0.20;69.79
40117;BME280;25829;50.228;18.936;2023-03-03T22:03:20;98779.22;;;-0.19;69.68
40117;BME280;25829;50.228;18.936;2023-03-03T22:06:21;98775.72;;;-0.18;69.84
40117;BME280;25829;50.228;18.936;2023-03-03T22:09:22;98771.09;;;-0.14;69.93
40117;BME280;25829;50.228;18.936;2023-03-03T22:12:23;98771.63;;;-0.10;69.57
40117;BME280;25829;50.228;18.936;2023-03-03T22:15:24;98760.16;;;-0.08;69.67
40117;BME280;25829;50.228;18.936;2023-03-03T22:18:26;98754.03;;;-0.07;69.70
40117;BME280;25829;50.228;18.936;2023-03-03T22:21:27;98748.84;;;-0.07;69.61
40117;BME280;25829;50.228;18.936;2023-03-03T22:24:28;98739.72;;;-0.11;69.56
40117;BME280;25829;50.228;18.936;2023-03-03T22:27:32;98745.00;;;-0.13;69.67
40117;BME280;25829;50.228;18.936;2023-03-03T22:30:33;98727.38;;;-0.19;69.60
40117;BME280;25829;50.228;18.936;2023-03-03T22:33:40;98719.59;;;-0.19;69.63
40117;BME280;25829;50.228;18.936;2023-03-03T22:36:40;98720.28;;;-0.17;69.58
40117;BME280;25829;50.228;18.936;2023-03-03T22:39:41;98721.56;;;-0.11;69.76
40117;BME280;25829;50.228;18.936;2023-03-03T22:42:42;98718.53;;;-0.06;69.86
40117;BME280;25829;50.228;18.936;2023-03-03T22:45:43;98721.69;;;-0.03;69.68
40117;BME280;25829;50.228;18.936;2023-03-03T22:48:44;98714.59;;;-0.01;69.52
40117;BME280;25829;50.228;18.936;2023-03-03T22:51:45;98718.94;;;-0.01;69.59
40117;BME280;25829;50.228;18.936;2023-03-03T22:54:46;98712.66;;;-0.08;69.80
40117;BME280;25829;50.228;18.936;2023-03-03T22:57:53;98706.81;;;-0.10;69.30
40117;BME280;25829;50.228;18.936;2023-03-03T23:00:54;98710.34;;;-0.12;69.63